Time;durP1;ratioP1;P1;durP2;ratioP2;P2;SDS_P1;SDS_P2;PMS_P1;PMS_P2;Temp;Humidity;BMP_temperature;BMP_pressure;BME280_temperature;BME280_humidity;BME280_pressure;Samples;Min_cycle;Max_cycle;Signal;HPM_P1;HPM_P2
2022/05/20 00:01:44;;;;;;;27.47;24.03;;;;;;;;;;5075781;28;20411;-76
2022/05/20 00:04:10;;;;;;;32.70;25.07;;;;;;;;;;5075384;28;20424;-76
2022/05/20 00:06:36;;;;;;;27.97;23.77;;;;;;;;;;5074566;28;20420;-74
2022/05/20 00:09:03;;;;;;;25.93;23.13;;;;;;;;;;5075751;28;20482;-75
2022/05/20 00:11:29;;;;;;;28.83;24.40;;;;;;;;;;5075650;28;20412;-76
2022/05/20 00:13:55;;;;;;;30.47;24.40;;;;;;;;;;5073964;28;20439;-74
2022/05/20 00:16:21;;;;;;;28.03;22.63;;;;;;;;;;5075636;28;20465;-73
2022/05/20 00:18:47;;;;;;;27.17;22.93;;;;;;;;;;5076015;28;20404;-75
2022/05/20 00:21:13;;;;;;;27.13;22.40;;;;;;;;;;5075816;28;20379;-76
2022/05/20 00:23:39;;;;;;;29.20;21.60;;;;;;;;;;5075041;28;20810;-75
2022/05/20 00:26:05;;;;;;;24.53;21.93;;;;;;;;;;5075276;28;20414;-75
2022/05/20 00:28:31;;;;;;;24.57;21.63;;;;;;;;;;5075210;28;20827;-74
2022/05/20 00:30:57;;;;;;;28.70;21.77;;;;;;;;;;5075399;28;20423;-75
2022/05/20 00:33:23;;;;;;;32.83;22.20;;;;;;;;;;5074807;28;20431;-76
2022/05/20 00:35:49;;;;;;;25.23;21.70;;;;;;;;;;5075111;28;20467;-74
2022/05/20 00:38:16;;;;;;;33.70;23.00;;;;;;;;;;5075068;28;20389;-74
2022/05/20 00:40:42;;;;;;;28.50;21.20;;;;;;;;;;5075272;28;20387;-75
2022/05/20 00:43:08;;;;;;;25.97;21.50;;;;;;;;;;5074716;28;20407;-75
2022/05/20 00:45:34;;;;;;;27.23;22.20;;;;;;;;;;5074871;28;20431;-77
2022/05/20 00:48:00;;;;;;;26.50;22.70;;;;;;;;;;5074849;28;20455;-74
2022/05/20 00:50:26;;;;;;;30.80;24.50;;;;;;;;;;5073352;28;20473;-74
2022/05/20 00:52:53;;;;;;;25.93;21.50;;;;;;;;;;5074487;28;20817;-74
2022/05/20 00:55:21;;;;;;;26.50;22.87;;;;;;;;;;5073443;28;20402;-76
2022/05/20 00:57:49;;;;;;;34.20;24.67;;;;;;;;;;5074425;28;20412;-75
2022/05/20 01:00:26;;;;;;;31.47;22.27;;;;;;;;;;5074249;28;20423;-76
2022/05/20 01:02:54;;;;;;;28.60;23.90;;;;;;;;;;5074103;28;20892;-77
2022/05/20 01:05:27;;;;;;;28.37;22.23;;;;;;;;;;5074071;28;20437;-76
2022/05/20 01:07:54;;;;;;;31.83;23.33;;;;;;;;;;5074157;28;20459;-75
2022/05/20 01:10:20;;;;;;;25.60;22.90;;;;;;;;;;5074248;28;20386;-76
2022/05/20 01:12:47;;;;;;;24.77;22.13;;;;;;;;;;5073918;28;20416;-74
2022/05/20 01:15:13;;;;;;;26.37;21.67;;;;;;;;;;5072473;28;20435;-76
2022/05/20 01:17:39;;;;;;;33.60;23.10;;;;;;;;;;5073954;28;20393;-75
2022/05/20 01:20:08;;;;;;;30.33;21.80;;;;;;;;;;5073984;28;20412;-75
2022/05/20 01:22:37;;;;;;;33.67;23.47;;;;;;;;;;5073847;28;20407;-74
2022/05/20 01:25:03;;;;;;;31.53;24.07;;;;;;;;;;5072372;28;20451;-75
2022/05/20 01:27:29;;;;;;;29.70;23.20;;;;;;;;;;5073991;28;20465;-76
2022/05/20 01:29:55;;;;;;;29.63;23.50;;;;;;;;;;5072757;28;20414;-76
2022/05/20 01:32:21;;;;;;;29.50;23.77;;;;;;;;;;5073550;28;20888;-75
2022/05/20 01:34:47;;;;;;;28.77;21.47;;;;;;;;;;5073268;28;20405;-76
2022/05/20 01:37:13;;;;;;;26.60;21.63;;;;;;;;;;5073728;28;20390;-75
2022/05/20 01:39:39;;;;;;;31.37;22.77;;;;;;;;;;5073685;28;20411;-77
2022/05/20 01:42:09;;;;;;;26.20;22.33;;;;;;;;;;5073605;28;20531;-75
2022/05/20 01:44:38;;;;;;;24.60;21.93;;;;;;;;;;5072996;28;20850;-75
2022/05/20 01:47:11;;;;;;;28.50;22.43;;;;;;;;;;5073319;28;20861;-75
2022/05/20 01:49:40;;;;;;;31.67;22.60;;;;;;;;;;5073324;28;20866;-75
2022/05/20 01:52:06;;;;;;;28.60;23.77;;;;;;;;;;5073454;28;20411;-74
2022/05/20 01:54:37;;;;;;;33.20;22.87;;;;;;;;;;5072472;28;20427;-75
2022/05/20 01:57:07;;;;;;;25.63;21.80;;;;;;;;;;5073137;28;20419;-75
2022/05/20 01:59:39;;;;;;;31.67;28.00;;;;;;;;;;5073307;28;20399;-76
2022/05/20 02:02:09;;;;;;;29.30;23.40;;;;;;;;;;5073435;28;20404;-75
2022/05/20 02:04:43;;;;;;;30.93;26.70;;;;;;;;;;5072883;28;20423;-76
2022/05/20 02:07:10;;;;;;;34.53;28.03;;;;;;;;;;5071822;28;20467;-76
2022/05/20 02:09:44;;;;;;;33.53;28.50;;;;;;;;;;5073094;28;21158;-75
2022/05/20 02:12:12;;;;;;;38.57;29.80;;;;;;;;;;5073182;28;20395;-75
2022/05/20 02:14:43;;;;;;;32.87;28.77;;;;;;;;;;5072991;28;20409;-75
2022/05/20 02:17:14;;;;;;;35.37;29.70;;;;;;;;;;5073016;28;20498;-75
2022/05/20 02:19:44;;;;;;;36.90;31.77;;;;;;;;;;5071874;28;20940;-73
2022/05/20 02:22:19;;;;;;;37.17;31.00;;;;;;;;;;5072970;28;20514;-74
2022/05/20 02:24:47;;;;;;;40.47;32.70;;;;;;;;;;5072726;28;20506;-74
2022/05/20 02:27:16;;;;;;;41.83;33.27;;;;;;;;;;5072918;28;20463;-75
2022/05/20 02:29:58;;;;;;;39.07;32.70;;;;;;;;;;5072974;28;20821;-75
2022/05/20 02:32:27;;;;;;;44.67;35.60;;;;;;;;;;5072916;28;20419;-73
2022/05/20 02:34:54;;;;;;;41.70;33.30;;;;;;;;;;5072364;28;20427;-75
2022/05/20 02:37:25;;;;;;;43.57;33.70;;;;;;;;;;5071369;28;20978;-76
2022/05/20 02:39:51;;;;;;;40.63;32.90;;;;;;;;;;5073045;28;20418;-76
2022/05/20 02:42:17;;;;;;;46.93;35.37;;;;;;;;;;5072842;28;20416;-73
2022/05/20 02:44:43;;;;;;;44.20;38.77;;;;;;;;;;5072279;28;20414;-76
2022/05/20 02:47:09;;;;;;;50.07;39.10;;;;;;;;;;5072547;28;20451;-74
2022/05/20 02:49:36;;;;;;;50.77;41.10;;;;;;;;;;5054730;28;20459;-75
2022/05/20 02:52:02;;;;;;;47.63;37.83;;;;;;;;;;5071315;28;20896;-74
2022/05/20 02:54:28;;;;;;;45.60;35.90;;;;;;;;;;5072323;28;20423;-74
2022/05/20 02:56:54;;;;;;;49.30;37.43;;;;;;;;;;5072681;28;20419;-76
2022/05/20 03:04:49;;;;;;;41.90;33.37;;;;;;;;;;5072282;28;20423;-76
2022/05/20 03:07:15;;;;;;;49.60;37.43;;;;;;;;;;5074726;28;20493;-75
2022/05/20 03:09:41;;;;;;;48.43;38.40;;;;;;;;;;5076501;28;20393;-74
2022/05/20 03:12:07;;;;;;;51.87;38.53;;;;;;;;;;5076391;28;20414;-74
2022/05/20 03:14:34;;;;;;;50.33;39.00;;;;;;;;;;5075970;28;20459;-74
2022/05/20 03:17:00;;;;;;;50.90;39.20;;;;;;;;;;5076354;28;20726;-74
2022/05/20 03:19:31;;;;;;;44.23;36.17;;;;;;;;;;5076142;28;20754;-75
2022/05/20 03:22:01;;;;;;;46.33;35.63;;;;;;;;;;5076246;28;20903;-74
2022/05/20 03:24:27;;;;;;;41.10;34.40;;;;;;;;;;5075724;28;20447;-74
2022/05/20 03:26:53;;;;;;;41.70;35.70;;;;;;;;;;5076413;28;20403;-74
2022/05/20 03:29:19;;;;;;;44.53;35.33;;;;;;;;;;5076659;28;20438;-76
2022/05/20 03:31:45;;;;;;;43.90;37.33;;;;;;;;;;5075832;28;20423;-74
2022/05/20 03:34:12;;;;;;;52.87;39.93;;;;;;;;;;5075669;28;20936;-74
2022/05/20 03:36:43;;;;;;;49.87;37.47;;;;;;;;;;5074762;28;20421;-74
2022/05/20 03:39:10;;;;;;;46.20;34.90;;;;;;;;;;5074654;28;20445;-75
2022/05/20 03:41:38;;;;;;;41.63;34.57;;;;;;;;;;5075746;28;20461;-75
2022/05/20 03:44:04;;;;;;;44.57;34.83;;;;;;;;;;5074139;28;20442;-75
2022/05/20 03:46:31;;;;;;;42.50;35.90;;;;;;;;;;5075593;28;20412;-75
2022/05/20 03:48:57;;;;;;;47.10;36.13;;;;;;;;;;5075619;28;20952;-75
2022/05/20 03:51:23;;;;;;;46.60;37.40;;;;;;;;;;5075624;28;20403;-75
2022/05/20 03:53:49;;;;;;;49.70;37.90;;;;;;;;;;5075011;28;20759;-75
2022/05/20 03:56:15;;;;;;;44.37;35.80;;;;;;;;;;5075586;28;20386;-74
2022/05/20 03:58:41;;;;;;;44.27;34.53;;;;;;;;;;5075500;28;20871;-75
2022/05/20 04:03:54;;;;;;;50.80;36.93;;;;;;;;;;5075103;28;20502;-75
2022/05/20 04:06:20;;;;;;;53.20;37.70;;;;;;;;;;5075367;28;20536;-74
2022/05/20 04:08:46;;;;;;;46.10;36.90;;;;;;;;;;5075055;28;20471;-73
2022/05/20 04:11:13;;;;;;;49.23;36.70;;;;;;;;;;5075214;28;20456;-75
2022/05/20 04:13:40;;;;;;;49.77;38.17;;;;;;;;;;5074520;28;21138;-75
2022/05/20 04:16:06;;;;;;;42.23;35.43;;;;;;;;;;5074706;28;20779;-75
2022/05/20 04:18:32;;;;;;;46.60;35.67;;;;;;;;;;5075160;28;20461;-74
2022/05/20 04:20:58;;;;;;;46.77;36.60;;;;;;;;;;5075147;28;20411;-74
2022/05/20 04:23:24;;;;;;;45.53;35.30;;;;;;;;;;5075123;28;20404;-76
2022/05/20 04:25:50;;;;;;;47.53;35.67;;;;;;;;;;5073797;28;20414;-76
2022/05/20 04:28:17;;;;;;;47.63;36.20;;;;;;;;;;5074778;28;20438;-75
2022/05/20 04:30:43;;;;;;;46.97;36.97;;;;;;;;;;5073573;28;20900;-75
2022/05/20 04:33:09;;;;;;;44.60;35.27;;;;;;;;;;5072901;28;20442;-76
2022/05/20 04:35:35;;;;;;;46.77;35.47;;;;;;;;;;5074640;28;20758;-74
2022/05/20 04:38:01;;;;;;;47.37;37.60;;;;;;;;;;5074541;28;20490;-74
2022/05/20 04:40:26;;;;;;;51.70;40.30;;;;;;;;;;5074651;28;20419;-76
2022/05/20 04:48:26;;;;;;;43.27;36.03;;;;;;;;;;5074368;28;20469;-74
2022/05/20 04:50:52;;;;;;;51.70;38.20;;;;;;;;;;5074391;28;20390;-76
2022/05/20 04:56:03;;;;;;;47.37;37.37;;;;;;;;;;5074562;28;20407;-75
2022/05/20 04:58:29;;;;;;;54.93;40.27;;;;;;;;;;5074028;28;20403;-74
2022/05/20 05:00:56;;;;;;;58.03;42.87;;;;;;;;;;5082136;28;20933;-73
2022/05/20 05:03:22;;;;;;;52.63;41.13;;;;;;;;;;5094219;28;20416;-74
2022/05/20 05:05:48;;;;;;;55.80;39.10;;;;;;;;;;5094461;28;20405;-75
2022/05/20 05:08:16;;;;;;;52.90;40.00;;;;;;;;;;5076120;28;20444;-75
2022/05/20 05:10:43;;;;;;;54.53;38.10;;;;;;;;;;5093228;28;20501;-75
2022/05/20 05:13:09;;;;;;;49.60;36.70;;;;;;;;;;5094083;28;20381;-76
2022/05/20 05:15:35;;;;;;;46.23;36.00;;;;;;;;;;5094217;28;20939;-76
2022/05/20 05:18:12;;;;;;;51.17;37.90;;;;;;;;;;5094508;28;20415;-74
2022/05/20 05:20:42;;;;;;;56.67;40.00;;;;;;;;;;5094097;28;20781;-74
2022/05/20 05:23:08;;;;;;;54.53;36.47;;;;;;;;;;5093860;28;20419;-76
2022/05/20 05:25:35;;;;;;;51.63;41.10;;;;;;;;;;5093794;28;20434;-77
2022/05/20 05:28:01;;;;;;;50.93;39.20;;;;;;;;;;5093020;28;20944;-74
2022/05/20 05:30:27;;;;;;;51.80;38.07;;;;;;;;;;5093534;28;20385;-74
2022/05/20 05:32:53;;;;;;;45.10;37.57;;;;;;;;;;5093605;28;20860;-75
2022/05/20 05:35:24;;;;;;;52.73;40.07;;;;;;;;;;5093654;28;20849;-75
2022/05/20 05:37:50;;;;;;;51.30;37.97;;;;;;;;;;5094020;28;20866;-74
2022/05/20 05:40:17;;;;;;;50.13;36.97;;;;;;;;;;5079301;28;20423;-75
2022/05/20 05:42:43;;;;;;;52.27;37.30;;;;;;;;;;5073483;28;20438;-75
2022/05/20 05:45:10;;;;;;;53.30;37.20;;;;;;;;;;5073134;28;20430;-73
2022/05/20 05:47:36;;;;;;;49.83;36.90;;;;;;;;;;5073378;28;20462;-74
2022/05/20 05:50:02;;;;;;;55.37;37.90;;;;;;;;;;5073322;28;20891;-73
2022/05/20 05:52:28;;;;;;;50.23;34.80;;;;;;;;;;5073174;28;20419;-75
2022/05/20 05:54:54;;;;;;;46.63;35.70;;;;;;;;;;5072754;28;20784;-76
2022/05/20 05:57:20;;;;;;;46.13;35.30;;;;;;;;;;5071925;28;20564;-75
2022/05/20 05:59:46;;;;;;;44.30;34.33;;;;;;;;;;5073138;28;20420;-76
2022/05/20 06:02:12;;;;;;;47.20;35.53;;;;;;;;;;5071893;28;20420;-74
2022/05/20 06:04:38;;;;;;;44.70;32.67;;;;;;;;;;5092605;28;20525;-74
2022/05/20 06:07:05;;;;;;;48.63;35.17;;;;;;;;;;5093361;28;20914;-76
2022/05/20 06:09:31;;;;;;;59.77;34.97;;;;;;;;;;5093345;28;20764;-76
2022/05/20 06:11:57;;;;;;;41.40;31.23;;;;;;;;;;5092517;28;20429;-77
2022/05/20 06:14:23;;;;;;;43.93;32.30;;;;;;;;;;5093090;28;20795;-78
2022/05/20 06:16:49;;;;;;;43.63;33.33;;;;;;;;;;5093406;28;20403;-77
2022/05/20 06:19:15;;;;;;;49.83;33.33;;;;;;;;;;5093324;28;20434;-79
2022/05/20 06:21:42;;;;;;;39.87;32.43;;;;;;;;;;5093342;28;20411;-77
2022/05/20 06:24:08;;;;;;;39.10;30.83;;;;;;;;;;5092927;28;20434;-78
2022/05/20 06:26:35;;;;;;;41.33;32.93;;;;;;;;;;5092338;28;20426;-78
2022/05/20 06:29:02;;;;;;;40.30;31.87;;;;;;;;;;5084313;28;20558;-76
2022/05/20 06:31:28;;;;;;;41.77;33.37;;;;;;;;;;5071868;28;20497;-79
2022/05/20 06:33:54;;;;;;;45.80;32.80;;;;;;;;;;5072741;28;20908;-77
2022/05/20 06:41:50;;;;;;;41.27;32.37;;;;;;;;;;5079994;28;20456;-75
2022/05/20 06:44:16;;;;;;;39.03;30.87;;;;;;;;;;5079194;28;20439;-76
2022/05/20 06:46:42;;;;;;;42.87;34.07;;;;;;;;;;5078132;28;20419;-73
2022/05/20 06:49:08;;;;;;;41.57;29.37;;;;;;;;;;5079067;28;20470;-75
2022/05/20 06:51:37;;;;;;;38.40;30.40;;;;;;;;;;5079360;28;20453;-74
2022/05/20 06:54:03;;;;;;;38.90;30.93;;;;;;;;;;5078977;28;20420;-77
2022/05/20 06:56:30;;;;;;;34.60;30.70;;;;;;;;;;5079254;28;20431;-76
2022/05/20 06:58:57;;;;;;;38.80;29.60;;;;;;;;;;5077819;28;20424;-77
2022/05/20 07:01:23;;;;;;;36.80;29.87;;;;;;;;;;5079142;28;20516;-75
2022/05/20 07:03:49;;;;;;;33.60;29.60;;;;;;;;;;5077583;28;20443;-74
2022/05/20 07:06:16;;;;;;;34.50;29.33;;;;;;;;;;5079201;28;20423;-76
2022/05/20 07:08:48;;;;;;;33.00;29.40;;;;;;;;;;5079188;28;20466;-76
2022/05/20 07:11:14;;;;;;;35.20;28.47;;;;;;;;;;5079207;28;20415;-74
2022/05/20 07:13:40;;;;;;;34.77;28.43;;;;;;;;;;5078885;28;20443;-76
2022/05/20 07:16:07;;;;;;;38.00;32.70;;;;;;;;;;5079227;28;20399;-76
2022/05/20 07:18:34;;;;;;;44.60;33.60;;;;;;;;;;5079313;28;20417;-75
2022/05/20 07:21:00;;;;;;;41.00;31.03;;;;;;;;;;5079201;28;20421;-76
2022/05/20 07:23:29;;;;;;;36.30;32.40;;;;;;;;;;5078583;28;20453;-76
2022/05/20 07:25:55;;;;;;;37.90;32.83;;;;;;;;;;5079168;28;20412;-75
2022/05/20 07:28:21;;;;;;;41.57;33.47;;;;;;;;;;5079109;28;21030;-74
2022/05/20 07:30:47;;;;;;;37.10;29.70;;;;;;;;;;5079092;28;20770;-77
2022/05/20 07:33:13;;;;;;;35.93;30.00;;;;;;;;;;5077402;28;20427;-76
2022/05/20 07:35:39;;;;;;;39.10;33.80;;;;;;;;;;5077707;28;20451;-74
2022/05/20 07:38:06;;;;;;;41.40;34.77;;;;;;;;;;5077932;28;20415;-75
2022/05/20 07:40:32;;;;;;;42.40;36.30;;;;;;;;;;5079115;28;20477;-74
2022/05/20 07:42:58;;;;;;;49.40;40.87;;;;;;;;;;5078621;28;20407;-75
2022/05/20 07:45:24;;;;;;;55.27;45.90;;;;;;;;;;5077498;28;20435;-75
2022/05/20 07:47:50;;;;;;;55.13;46.53;;;;;;;;;;5078865;28;20802;-75
2022/05/20 07:50:16;;;;;;;51.87;44.13;;;;;;;;;;5079068;28;20820;-76
2022/05/20 07:55:33;;;;;;;59.03;46.30;;;;;;;;;;5075693;28;20497;-75
2022/05/20 07:58:00;;;;;;;51.00;41.87;;;;;;;;;;5075720;28;20807;-76
2022/05/20 08:00:26;;;;;;;48.30;41.33;;;;;;;;;;5075581;28;20900;-76
2022/05/20 08:02:53;;;;;;;49.33;40.17;;;;;;;;;;5073931;28;20439;-74
2022/05/20 08:05:21;;;;;;;50.60;43.60;;;;;;;;;;5075428;28;20803;-76
2022/05/20 08:07:47;;;;;;;53.13;42.67;;;;;;;;;;5075207;28;20562;-75
2022/05/20 08:10:15;;;;;;;49.00;39.73;;;;;;;;;;5075733;28;20407;-74
2022/05/20 08:12:41;;;;;;;51.97;42.67;;;;;;;;;;5074319;28;20880;-74
2022/05/20 08:15:08;;;;;;;44.57;39.43;;;;;;;;;;5074099;28;20766;-74
2022/05/20 08:17:36;;;;;;;58.73;37.67;;;;;;;;;;5075233;28;20806;-76
2022/05/20 08:20:04;;;;;;;45.73;35.07;;;;;;;;;;5075330;28;20408;-77
2022/05/20 08:22:30;;;;;;;41.53;34.67;;;;;;;;;;5075235;28;20415;-75
2022/05/20 08:24:58;;;;;;;43.47;32.57;;;;;;;;;;5074767;28;20435;-75
2022/05/20 08:27:25;;;;;;;37.20;33.20;;;;;;;;;;5073839;28;20455;-76
2022/05/20 08:29:51;;;;;;;38.00;33.90;;;;;;;;;;5074055;28;20420;-75
2022/05/20 08:32:17;;;;;;;38.20;33.83;;;;;;;;;;5075170;28;20436;-75
2022/05/20 08:34:43;;;;;;;36.73;31.40;;;;;;;;;;5074593;28;20497;-76
2022/05/20 08:37:10;;;;;;;36.20;32.40;;;;;;;;;;5074968;28;20400;-75
2022/05/20 08:39:36;;;;;;;33.30;29.90;;;;;;;;;;5074964;28;20413;-73
2022/05/20 08:42:02;;;;;;;34.67;30.50;;;;;;;;;;5074842;28;20941;-76
2022/05/20 08:44:28;;;;;;;40.37;31.83;;;;;;;;;;5074541;28;20535;-74
2022/05/20 08:47:13;;;;;;;34.10;30.50;;;;;;;;;;5075006;28;20974;-74
2022/05/20 08:49:39;;;;;;;37.17;30.73;;;;;;;;;;5074745;28;20495;-78
2022/05/20 08:52:05;;;;;;;36.40;32.00;;;;;;;;;;5074589;28;20404;-76
2022/05/20 08:54:31;;;;;;;37.40;30.33;;;;;;;;;;5073110;28;20952;-75
2022/05/20 08:56:58;;;;;;;35.20;31.33;;;;;;;;;;5074573;28;20422;-76
2022/05/20 08:59:24;;;;;;;35.20;30.40;;;;;;;;;;5074586;28;20421;-75
2022/05/20 09:01:51;;;;;;;35.47;31.77;;;;;;;;;;5074469;28;20419;-76
2022/05/20 09:04:21;;;;;;;33.03;29.47;;;;;;;;;;5072897;28;20429;-74
2022/05/20 09:07:02;;;;;;;33.50;29.60;;;;;;;;;;5074417;28;20437;-76
2022/05/20 09:09:40;;;;;;;30.50;27.40;;;;;;;;;;5074529;28;20431;-76
2022/05/20 09:12:06;;;;;;;31.07;27.97;;;;;;;;;;5074202;28;20423;-77
2022/05/20 09:17:21;;;;;;;27.50;24.47;;;;;;;;;;5074486;28;20449;-75
2022/05/20 09:20:04;;;;;;;27.07;24.40;;;;;;;;;;5074580;28;20446;-76
2022/05/20 09:22:38;;;;;;;25.90;23.20;;;;;;;;;;5074334;28;20830;-75
2022/05/20 09:25:15;;;;;;;27.07;24.30;;;;;;;;;;5073907;28;20451;-75
2022/05/20 09:27:42;;;;;;;24.97;22.47;;;;;;;;;;5074139;28;20529;-76
2022/05/20 09:30:10;;;;;;;25.10;21.60;;;;;;;;;;5074223;28;20427;-76
2022/05/20 09:32:45;;;;;;;24.43;22.00;;;;;;;;;;5072642;28;20451;-75
2022/05/20 09:35:15;;;;;;;23.70;21.23;;;;;;;;;;5073670;28;20431;-75
2022/05/20 09:37:41;;;;;;;21.50;19.30;;;;;;;;;;5072622;28;20895;-76
2022/05/20 09:40:16;;;;;;;26.00;23.40;;;;;;;;;;5073892;28;20408;-76
2022/05/20 09:42:56;;;;;;;23.20;21.03;;;;;;;;;;5073836;28;20411;-75
2022/05/20 09:45:22;;;;;;;25.93;23.07;;;;;;;;;;5073813;28;20996;-75
2022/05/20 09:47:50;;;;;;;25.80;22.60;;;;;;;;;;5073850;28;20558;-76
2022/05/20 09:50:38;;;;;;;25.53;23.07;;;;;;;;;;5073838;28;20912;-76
2022/05/20 09:53:09;;;;;;;24.97;22.27;;;;;;;;;;5073236;28;20479;-77
2022/05/20 09:55:37;;;;;;;21.97;19.97;;;;;;;;;;5073630;28;20448;-76
2022/05/20 09:58:16;;;;;;;20.93;19.07;;;;;;;;;;5073509;28;20415;-76
2022/05/20 10:00:43;;;;;;;20.30;18.13;;;;;;;;;;5073461;28;20407;-74
2022/05/20 10:03:28;;;;;;;22.90;20.60;;;;;;;;;;5073189;28;20440;-75
2022/05/20 10:06:00;;;;;;;19.47;17.20;;;;;;;;;;5073439;28;20769;-74
2022/05/20 10:08:35;;;;;;;18.80;17.00;;;;;;;;;;5073338;28;20462;-74
2022/05/20 10:11:10;;;;;;;20.40;18.40;;;;;;;;;;5073493;28;20438;-73
2022/05/20 10:13:36;;;;;;;21.53;19.43;;;;;;;;;;5072957;28;20415;-76
2022/05/20 10:16:28;;;;;;;18.67;16.87;;;;;;;;;;5073022;28;20408;-73
2022/05/20 10:19:03;;;;;;;19.33;17.37;;;;;;;;;;5050002;28;20416;-74
2022/05/20 10:21:49;;;;;;;21.17;19.17;;;;;;;;;;5072067;28;20411;-75
2022/05/20 10:24:26;;;;;;;20.00;17.90;;;;;;;;;;5062405;28;20524;-74
2022/05/20 10:27:02;;;;;;;22.40;20.23;;;;;;;;;;5072191;28;20411;-73
2022/05/20 10:32:35;;;;;;;19.27;17.33;;;;;;;;;;5073247;28;20477;-75
2022/05/20 10:35:03;;;;;;;18.10;15.60;;;;;;;;;;5072833;28;20431;-73
2022/05/20 10:37:39;;;;;;;18.90;17.20;;;;;;;;;;5073307;28;20460;-75
2022/05/20 10:40:19;;;;;;;27.83;16.17;;;;;;;;;;5073295;28;20434;-74
2022/05/20 10:42:50;;;;;;;17.10;15.30;;;;;;;;;;5071781;28;20408;-75
2022/05/20 10:51:11;;;;;;;15.00;13.40;;;;;;;;;;5072693;28;20574;-73
2022/05/20 10:53:40;;;;;;;13.63;12.23;;;;;;;;;;5072616;28;20415;-72
2022/05/20 10:56:27;;;;;;;14.10;11.80;;;;;;;;;;5072998;28;20412;-77
2022/05/20 10:59:12;;;;;;;13.57;12.30;;;;;;;;;;5072858;28;20420;-74
2022/05/20 11:01:56;;;;;;;11.90;10.80;;;;;;;;;;5072807;28;20406;-75
2022/05/20 11:04:25;;;;;;;10.43;9.40;;;;;;;;;;5072446;28;20431;-75
2022/05/20 11:07:01;;;;;;;13.10;11.60;;;;;;;;;;5072811;28;20412;-75
2022/05/20 11:09:30;;;;;;;11.93;10.80;;;;;;;;;;5072698;28;20546;-76
2022/05/20 11:12:00;;;;;;;10.67;9.47;;;;;;;;;;5072875;28;20402;-76
2022/05/20 11:14:32;;;;;;;11.20;10.13;;;;;;;;;;5071136;28;20469;-74
2022/05/20 11:17:14;;;;;;;12.37;10.20;;;;;;;;;;5072593;28;20409;-75
2022/05/20 11:19:43;;;;;;;12.63;10.50;;;;;;;;;;5072448;28;20859;-75
2022/05/20 11:22:15;;;;;;;11.53;10.40;;;;;;;;;;5072585;28;20397;-78
2022/05/20 11:24:54;;;;;;;12.47;10.27;;;;;;;;;;5072256;28;20771;-73
2022/05/20 11:27:27;;;;;;;9.97;8.97;;;;;;;;;;5074647;28;20423;-76
2022/05/20 11:29:53;;;;;;;15.73;10.03;;;;;;;;;;5076503;28;20400;-77
2022/05/20 11:32:22;;;;;;;11.53;8.70;;;;;;;;;;5076220;28;20439;-76
2022/05/20 11:34:51;;;;;;;9.37;8.40;;;;;;;;;;5074682;28;20432;-75
2022/05/20 11:37:29;;;;;;;9.10;8.20;;;;;;;;;;5076093;28;20780;-73
2022/05/20 11:40:15;;;;;;;10.20;9.10;;;;;;;;;;5075006;28;20414;-76
2022/05/20 11:42:47;;;;;;;9.23;8.33;;;;;;;;;;5068855;28;20444;-76
2022/05/20 11:45:19;;;;;;;8.20;7.40;;;;;;;;;;5075623;28;20828;-74
2022/05/20 11:47:56;;;;;;;9.77;8.43;;;;;;;;;;5076104;28;20463;-74
2022/05/20 11:50:34;;;;;;;9.97;9.00;;;;;;;;;;5076204;28;20400;-73
2022/05/20 11:53:12;;;;;;;12.47;10.27;;;;;;;;;;5075455;28;20954;-74
2022/05/20 11:55:47;;;;;;;10.77;9.67;;;;;;;;;;5075471;28;20408;-77
2022/05/20 11:58:20;;;;;;;9.20;8.30;;;;;;;;;;5075597;28;20426;-75
2022/05/20 12:00:48;;;;;;;11.47;8.30;;;;;;;;;;5075627;28;20399;-76
2022/05/20 12:03:20;;;;;;;9.07;8.27;;;;;;;;;;5075237;28;20821;-77
2022/05/20 12:05:48;;;;;;;10.20;9.13;;;;;;;;;;5075579;28;20862;-74
2022/05/20 12:08:46;;;;;;;8.87;7.97;;;;;;;;;;5075465;28;20464;-74
2022/05/20 12:11:27;;;;;;;9.70;8.27;;;;;;;;;;5052527;28;20416;-75
2022/05/20 12:14:02;;;;;;;12.17;9.63;;;;;;;;;;5074860;28;20475;-73
2022/05/20 12:16:29;;;;;;;10.53;9.40;;;;;;;;;;5075770;28;20411;-74
2022/05/20 12:24:51;;;;;;;13.20;11.00;;;;;;;;;;5075516;28;20423;-73
2022/05/20 12:27:23;;;;;;;13.73;12.43;;;;;;;;;;5075096;28;20415;-74
2022/05/20 12:29:58;;;;;;;13.43;12.13;;;;;;;;;;5074924;28;20401;-76
2022/05/20 12:32:31;;;;;;;14.93;13.50;;;;;;;;;;5074232;28;20413;-76
2022/05/20 12:35:06;;;;;;;22.90;15.27;;;;;;;;;;5073366;28;20417;-78
2022/05/20 12:37:51;;;;;;;21.73;16.50;;;;;;;;;;5073002;28;20414;-78
2022/05/20 12:40:19;;;;;;;21.00;18.20;;;;;;;;;;5074843;28;20400;-78
2022/05/20 12:42:56;;;;;;;18.80;16.90;;;;;;;;;;5076799;28;20412;-76
2022/05/20 12:45:23;;;;;;;22.70;17.80;;;;;;;;;;5075729;28;20753;-74
2022/05/20 12:47:49;;;;;;;20.63;16.47;;;;;;;;;;5074479;28;20461;-75
2022/05/20 12:50:15;;;;;;;18.20;16.40;;;;;;;;;;5073228;28;20439;-76
2022/05/20 12:52:46;;;;;;;17.77;16.07;;;;;;;;;;5074618;28;20820;-75
2022/05/20 12:55:15;;;;;;;19.60;15.20;;;;;;;;;;5073965;28;20419;-75
2022/05/20 12:57:55;;;;;;;14.63;13.17;;;;;;;;;;5074126;28;20404;-77
2022/05/20 13:00:37;;;;;;;16.80;11.37;;;;;;;;;;5074239;28;20408;-77
2022/05/20 13:03:12;;;;;;;13.03;11.73;;;;;;;;;;5072608;28;20427;-75
2022/05/20 13:05:49;;;;;;;11.63;10.60;;;;;;;;;;5072636;28;20800;-75
2022/05/20 13:08:19;;;;;;;11.80;10.33;;;;;;;;;;5072742;28;20459;-76
2022/05/20 13:10:45;;;;;;;14.00;10.90;;;;;;;;;;5073986;28;20410;-78
2022/05/20 13:13:14;;;;;;;12.10;10.10;;;;;;;;;;5073779;28;20773;-77
2022/05/20 13:15:41;;;;;;;11.33;8.60;;;;;;;;;;5072469;28;20427;-77
2022/05/20 13:18:12;;;;;;;11.67;9.00;;;;;;;;;;5073719;28;20502;-77
2022/05/20 13:20:40;;;;;;;9.23;8.30;;;;;;;;;;5073961;28;20412;-76
2022/05/20 13:23:07;;;;;;;12.10;8.80;;;;;;;;;;5073535;28;20419;-76
2022/05/20 13:25:34;;;;;;;13.07;9.20;;;;;;;;;;5073637;28;20526;-77
2022/05/20 13:28:00;;;;;;;7.43;6.70;;;;;;;;;;5073575;28;20459;-75
2022/05/20 13:30:30;;;;;;;7.63;6.13;;;;;;;;;;5072590;28;20875;-78
2022/05/20 13:33:06;;;;;;;5.70;5.17;;;;;;;;;;5071894;28;20466;-75
2022/05/20 13:35:52;;;;;;;10.97;5.53;;;;;;;;;;5072172;28;20434;-75
2022/05/20 13:38:18;;;;;;;5.07;4.50;;;;;;;;;;5073356;28;20954;-75
2022/05/20 13:40:45;;;;;;;5.30;4.77;;;;;;;;;;5073572;28;20419;-77
2022/05/20 13:43:12;;;;;;;7.93;4.90;;;;;;;;;;5073146;28;20416;-77
2022/05/20 13:51:11;;;;;;;10.63;4.87;;;;;;;;;;5073476;28;20931;-75
2022/05/20 13:53:39;;;;;;;7.13;4.83;;;;;;;;;;5072839;28;20411;-75
2022/05/20 13:56:06;;;;;;;5.80;4.13;;;;;;;;;;5073321;28;20461;-73
2022/05/20 13:58:33;;;;;;;5.43;3.97;;;;;;;;;;5073166;28;20408;-76
2022/05/20 14:01:04;;;;;;;6.47;3.97;;;;;;;;;;5073396;28;20435;-74
2022/05/20 14:03:38;;;;;;;4.23;3.83;;;;;;;;;;5072688;28;20741;-73
2022/05/20 14:06:14;;;;;;;6.87;5.00;;;;;;;;;;5073138;28;20431;-74
2022/05/20 14:08:45;;;;;;;4.10;3.80;;;;;;;;;;5072859;28;20766;-75
2022/05/20 14:11:13;;;;;;;6.87;4.57;;;;;;;;;;5073119;28;20408;-76
2022/05/20 14:13:40;;;;;;;6.10;3.87;;;;;;;;;;5071186;28;20912;-74
2022/05/20 14:16:14;;;;;;;4.00;3.57;;;;;;;;;;5071509;28;20412;-75
2022/05/20 14:18:43;;;;;;;5.93;4.67;;;;;;;;;;5071488;28;20412;-77
2022/05/20 14:21:14;;;;;;;6.63;3.73;;;;;;;;;;5072765;28;20932;-75
2022/05/20 14:23:46;;;;;;;8.53;4.23;;;;;;;;;;5071230;28;20448;-75
2022/05/20 14:26:18;;;;;;;8.27;4.67;;;;;;;;;;5072996;28;20422;-76
2022/05/20 14:28:56;;;;;;;4.60;4.20;;;;;;;;;;5072739;28;20538;-74
2022/05/20 14:31:38;;;;;;;6.60;3.50;;;;;;;;;;5072874;28;20844;-77
2022/05/20 14:34:15;;;;;;;8.37;4.13;;;;;;;;;;5071063;28;20780;-77
2022/05/20 14:36:41;;;;;;;6.93;3.67;;;;;;;;;;5077887;28;20473;-77
2022/05/20 14:39:10;;;;;;;7.57;4.50;;;;;;;;;;5071334;28;20779;-77
2022/05/20 14:41:37;;;;;;;5.43;4.10;;;;;;;;;;5070107;28;20415;-77
2022/05/20 14:44:07;;;;;;;7.30;4.30;;;;;;;;;;5070836;28;20447;-78
2022/05/20 14:49:25;;;;;;;5.53;5.03;;;;;;;;;;5070051;28;20470;-77
2022/05/20 14:51:57;;;;;;;63.70;34.93;;;;;;;;;;5070230;28;20991;-76
2022/05/20 14:54:27;;;;;;;18.83;11.93;;;;;;;;;;5070436;28;20443;-77
2022/05/20 14:56:53;;;;;;;10.93;6.20;;;;;;;;;;5070437;28;20443;-77
2022/05/20 14:59:45;;;;;;;7.47;5.37;;;;;;;;;;5070848;28;21141;-76
2022/05/20 15:02:11;;;;;;;5.50;4.67;;;;;;;;;;5072363;28;20431;-77
2022/05/20 15:04:37;;;;;;;7.73;5.03;;;;;;;;;;5073621;28;20448;-75
2022/05/20 15:07:04;;;;;;;4.40;3.80;;;;;;;;;;5073924;28;20855;-76
2022/05/20 15:09:32;;;;;;;7.30;4.23;;;;;;;;;;5074805;28;20506;-78
2022/05/20 15:11:59;;;;;;;7.60;4.97;;;;;;;;;;5074156;28;20514;-77
2022/05/20 15:14:25;;;;;;;9.73;5.30;;;;;;;;;;5074259;28;20441;-76
2022/05/20 15:16:51;;;;;;;5.93;5.10;;;;;;;;;;5074832;28;20798;-77
2022/05/20 15:19:17;;;;;;;9.30;5.40;;;;;;;;;;5074325;28;20697;-77
2022/05/20 15:21:44;;;;;;;10.03;5.20;;;;;;;;;;5076604;28;20510;-79
2022/05/20 15:24:13;;;;;;;11.53;6.23;;;;;;;;;;5074397;28;20548;-75